sensor_id;sensor_type;location;lat;lon;timestamp;P1;durP1;ratioP1;P2;durP2;ratioP2
32347;SDS011;18821;44.800;10.326;2022-09-02T00:00:50;17.52;;;8.68;;
32347;SDS011;18821;44.800;10.326;2022-09-02T00:03:17;14.07;;;8.80;;
32347;SDS011;18821;44.800;10.326;2022-09-02T00:05:44;15.07;;;8.45;;
32347;SDS011;18821;44.800;10.326;2022-09-02T00:08:10;15.43;;;8.45;;
32347;SDS011;18821;44.800;10.326;2022-09-02T00:10:38;23.45;;;9.32;;
32347;SDS011;18821;44.800;10.326;2022-09-02T00:13:08;14.38;;;8.43;;
32347;SDS011;18821;44.800;10.326;2022-09-02T00:15:35;22.52;;;8.93;;
32347;SDS011;18821;44.800;10.326;2022-09-02T00:18:02;19.42;;;9.68;;
32347;SDS011;18821;44.800;10.326;2022-09-02T00:20:29;20.58;;;10.38;;
32347;SDS011;18821;44.800;10.326;2022-09-02T00:22:55;20.92;;;10.35;;
32347;SDS011;18821;44.800;10.326;2022-09-02T00:25:21;15.45;;;10.07;;
32347;SDS011;18821;44.800;10.326;2022-09-02T00:27:48;18.05;;;10.60;;
32347;SDS011;18821;44.800;10.326;2022-09-02T00:30:14;19.67;;;9.55;;
32347;SDS011;18821;44.800;10.326;2022-09-02T00:32:40;18.95;;;9.05;;
32347;SDS011;18821;44.800;10.326;2022-09-02T00:35:07;12.15;;;8.55;;
32347;SDS011;18821;44.800;10.326;2022-09-02T00:37:34;14.50;;;9.38;;
32347;SDS011;18821;44.800;10.326;2022-09-02T00:40:01;18.63;;;9.00;;
32347;SDS011;18821;44.800;10.326;2022-09-02T00:42:28;18.40;;;9.02;;
32347;SDS011;18821;44.800;10.326;2022-09-02T00:44:54;13.38;;;8.50;;
32347;SDS011;18821;44.800;10.326;2022-09-02T00:47:20;18.33;;;9.55;;
32347;SDS011;18821;44.800;10.326;2022-09-02T00:49:48;13.77;;;8.85;;
32347;SDS011;18821;44.800;10.326;2022-09-02T00:52:23;22.08;;;9.75;;
32347;SDS011;18821;44.800;10.326;2022-09-02T00:54:56;15.85;;;8.10;;
32347;SDS011;18821;44.800;10.326;2022-09-02T00:57:27;13.52;;;8.00;;
32347;SDS011;18821;44.800;10.326;2022-09-02T01:02:36;9.85;;;6.57;;
32347;SDS011;18821;44.800;10.326;2022-09-02T01:05:06;18.05;;;7.20;;
32347;SDS011;18821;44.800;10.326;2022-09-02T01:07:34;20.15;;;6.85;;
32347;SDS011;18821;44.800;10.326;2022-09-02T01:10:03;10.65;;;6.15;;
32347;SDS011;18821;44.800;10.326;2022-09-02T01:12:33;14.05;;;7.05;;
32347;SDS011;18821;44.800;10.326;2022-09-02T01:15:00;14.30;;;6.90;;
32347;SDS011;18821;44.800;10.326;2022-09-02T01:17:28;15.00;;;7.10;;
32347;SDS011;18821;44.800;10.326;2022-09-02T01:19:56;12.45;;;7.30;;
32347;SDS011;18821;44.800;10.326;2022-09-02T01:22:27;12.02;;;6.75;;
32347;SDS011;18821;44.800;10.326;2022-09-02T01:24:55;16.50;;;6.32;;
32347;SDS011;18821;44.800;10.326;2022-09-02T01:27:24;9.52;;;6.38;;
32347;SDS011;18821;44.800;10.326;2022-09-02T01:29:52;11.15;;;6.15;;
32347;SDS011;18821;44.800;10.326;2022-09-02T01:32:20;16.25;;;6.88;;
32347;SDS011;18821;44.800;10.326;2022-09-02T01:34:46;11.73;;;6.57;;
32347;SDS011;18821;44.800;10.326;2022-09-02T01:37:12;16.27;;;7.03;;
32347;SDS011;18821;44.800;10.326;2022-09-02T01:39:39;12.23;;;6.50;;
32347;SDS011;18821;44.800;10.326;2022-09-02T01:42:05;16.92;;;6.80;;
32347;SDS011;18821;44.800;10.326;2022-09-02T01:44:32;14.70;;;6.55;;
32347;SDS011;18821;44.800;10.326;2022-09-02T01:47:02;13.20;;;6.47;;
32347;SDS011;18821;44.800;10.326;2022-09-02T01:49:28;13.07;;;6.43;;
32347;SDS011;18821;44.800;10.326;2022-09-02T01:51:54;10.45;;;5.75;;
32347;SDS011;18821;44.800;10.326;2022-09-02T01:54:20;11.45;;;5.82;;
32347;SDS011;18821;44.800;10.326;2022-09-02T01:56:46;10.98;;;5.60;;
32347;SDS011;18821;44.800;10.326;2022-09-02T01:59:12;15.88;;;5.30;;
32347;SDS011;18821;44.800;10.326;2022-09-02T02:01:43;22.95;;;6.30;;
32347;SDS011;18821;44.800;10.326;2022-09-02T02:04:10;10.55;;;5.85;;
32347;SDS011;18821;44.800;10.326;2022-09-02T02:06:39;11.18;;;5.65;;
32347;SDS011;18821;44.800;10.326;2022-09-02T02:09:07;13.55;;;6.53;;
32347;SDS011;18821;44.800;10.326;2022-09-02T02:11:34;13.10;;;5.90;;
32347;SDS011;18821;44.800;10.326;2022-09-02T02:14:00;9.75;;;6.07;;
32347;SDS011;18821;44.800;10.326;2022-09-02T02:16:26;11.40;;;6.78;;
32347;SDS011;18821;44.800;10.326;2022-09-02T02:18:52;11.98;;;5.72;;
32347;SDS011;18821;44.800;10.326;2022-09-02T02:21:19;10.63;;;5.72;;
32347;SDS011;18821;44.800;10.326;2022-09-02T02:23:45;14.65;;;6.45;;
32347;SDS011;18821;44.800;10.326;2022-09-02T02:26:11;12.10;;;6.25;;
32347;SDS011;18821;44.800;10.326;2022-09-02T02:28:37;11.35;;;6.25;;
32347;SDS011;18821;44.800;10.326;2022-09-02T02:31:04;12.23;;;6.13;;
32347;SDS011;18821;44.800;10.326;2022-09-02T02:33:31;11.93;;;5.90;;
32347;SDS011;18821;44.800;10.326;2022-09-02T02:35:58;8.95;;;5.85;;
32347;SDS011;18821;44.800;10.326;2022-09-02T02:38:24;12.35;;;5.47;;
32347;SDS011;18821;44.800;10.326;2022-09-02T02:40:53;10.55;;;4.97;;
32347;SDS011;18821;44.800;10.326;2022-09-02T02:43:23;11.38;;;5.78;;
32347;SDS011;18821;44.800;10.326;2022-09-02T02:45:51;10.55;;;6.03;;
32347;SDS011;18821;44.800;10.326;2022-09-02T02:48:19;9.98;;;5.65;;
32347;SDS011;18821;44.800;10.326;2022-09-02T02:50:46;9.73;;;5.20;;
32347;SDS011;18821;44.800;10.326;2022-09-02T02:53:12;11.95;;;5.40;;
32347;SDS011;18821;44.800;10.326;2022-09-02T02:55:38;11.15;;;6.20;;
32347;SDS011;18821;44.800;10.326;2022-09-02T02:58:05;12.45;;;6.03;;
32347;SDS011;18821;44.800;10.326;2022-09-02T03:00:32;10.45;;;5.97;;
32347;SDS011;18821;44.800;10.326;2022-09-02T03:03:03;10.95;;;5.60;;
32347;SDS011;18821;44.800;10.326;2022-09-02T03:05:31;11.75;;;5.40;;
32347;SDS011;18821;44.800;10.326;2022-09-02T03:08:00;16.15;;;5.75;;
32347;SDS011;18821;44.800;10.326;2022-09-02T03:10:31;8.43;;;5.75;;
32347;SDS011;18821;44.800;10.326;2022-09-02T03:12:58;12.20;;;5.88;;
32347;SDS011;18821;44.800;10.326;2022-09-02T03:15:24;9.20;;;6.22;;
32347;SDS011;18821;44.800;10.326;2022-09-02T03:17:52;11.50;;;6.93;;
32347;SDS011;18821;44.800;10.326;2022-09-02T03:20:19;13.75;;;6.13;;
32347;SDS011;18821;44.800;10.326;2022-09-02T03:22:52;10.57;;;5.55;;
32347;SDS011;18821;44.800;10.326;2022-09-02T03:25:21;12.57;;;6.57;;
32347;SDS011;18821;44.800;10.326;2022-09-02T03:27:50;9.93;;;6.55;;
32347;SDS011;18821;44.800;10.326;2022-09-02T03:30:18;11.30;;;6.30;;
32347;SDS011;18821;44.800;10.326;2022-09-02T03:32:46;12.20;;;6.10;;
32347;SDS011;18821;44.800;10.326;2022-09-02T03:35:14;18.63;;;6.72;;
32347;SDS011;18821;44.800;10.326;2022-09-02T03:37:43;11.23;;;6.32;;
32347;SDS011;18821;44.800;10.326;2022-09-02T03:40:12;11.52;;;5.50;;
32347;SDS011;18821;44.800;10.326;2022-09-02T03:42:40;10.50;;;5.68;;
32347;SDS011;18821;44.800;10.326;2022-09-02T03:45:07;20.25;;;6.32;;
32347;SDS011;18821;44.800;10.326;2022-09-02T03:47:35;13.25;;;6.40;;
32347;SDS011;18821;44.800;10.326;2022-09-02T03:50:05;8.85;;;5.57;;
32347;SDS011;18821;44.800;10.326;2022-09-02T03:52:31;15.77;;;7.35;;
32347;SDS011;18821;44.800;10.326;2022-09-02T03:54:57;14.90;;;6.82;;
32347;SDS011;18821;44.800;10.326;2022-09-02T03:57:24;11.77;;;6.97;;
32347;SDS011;18821;44.800;10.326;2022-09-02T03:59:51;13.13;;;6.85;;
32347;SDS011;18821;44.800;10.326;2022-09-02T04:02:18;11.15;;;6.03;;
32347;SDS011;18821;44.800;10.326;2022-09-02T04:04:44;15.13;;;7.93;;
32347;SDS011;18821;44.800;10.326;2022-09-02T04:07:10;9.63;;;6.95;;
32347;SDS011;18821;44.800;10.326;2022-09-02T04:09:36;15.70;;;7.18;;
32347;SDS011;18821;44.800;10.326;2022-09-02T04:12:02;9.90;;;7.22;;
32347;SDS011;18821;44.800;10.326;2022-09-02T04:14:30;14.18;;;7.22;;
32347;SDS011;18821;44.800;10.326;2022-09-02T04:16:56;12.68;;;7.22;;
32347;SDS011;18821;44.800;10.326;2022-09-02T04:19:22;10.85;;;7.30;;
32347;SDS011;18821;44.800;10.326;2022-09-02T04:21:48;11.77;;;7.43;;
32347;SDS011;18821;44.800;10.326;2022-09-02T04:24:15;12.70;;;8.30;;
32347;SDS011;18821;44.800;10.326;2022-09-02T04:26:44;12.65;;;7.82;;
32347;SDS011;18821;44.800;10.326;2022-09-02T04:29:10;16.35;;;7.85;;
32347;SDS011;18821;44.800;10.326;2022-09-02T04:31:40;12.68;;;8.07;;
32347;SDS011;18821;44.800;10.326;2022-09-02T04:34:06;17.60;;;8.45;;
32347;SDS011;18821;44.800;10.326;2022-09-02T04:36:32;13.85;;;8.27;;
32347;SDS011;18821;44.800;10.326;2022-09-02T04:39:03;12.70;;;8.10;;
32347;SDS011;18821;44.800;10.326;2022-09-02T04:41:33;12.25;;;7.53;;
32347;SDS011;18821;44.800;10.326;2022-09-02T04:44:02;11.00;;;8.00;;
32347;SDS011;18821;44.800;10.326;2022-09-02T04:46:34;17.30;;;8.45;;
32347;SDS011;18821;44.800;10.326;2022-09-02T04:49:04;15.55;;;7.93;;
32347;SDS011;18821;44.800;10.326;2022-09-02T04:51:32;14.90;;;8.35;;
32347;SDS011;18821;44.800;10.326;2022-09-02T04:53:59;13.07;;;8.38;;
32347;SDS011;18821;44.800;10.326;2022-09-02T04:56:27;13.50;;;8.63;;
32347;SDS011;18821;44.800;10.326;2022-09-02T04:58:57;14.18;;;9.38;;
32347;SDS011;18821;44.800;10.326;2022-09-02T05:01:24;22.80;;;11.68;;
32347;SDS011;18821;44.800;10.326;2022-09-02T05:03:56;19.42;;;12.50;;
32347;SDS011;18821;44.800;10.326;2022-09-02T05:06:27;22.23;;;13.75;;
32347;SDS011;18821;44.800;10.326;2022-09-02T05:08:57;24.35;;;13.73;;
32347;SDS011;18821;44.800;10.326;2022-09-02T05:11:28;18.48;;;12.75;;
32347;SDS011;18821;44.800;10.326;2022-09-02T05:13:57;20.27;;;14.55;;
32347;SDS011;18821;44.800;10.326;2022-09-02T05:16:28;19.63;;;14.73;;
32347;SDS011;18821;44.800;10.326;2022-09-02T05:18:57;25.88;;;15.05;;
32347;SDS011;18821;44.800;10.326;2022-09-02T05:21:29;32.10;;;16.05;;
32347;SDS011;18821;44.800;10.326;2022-09-02T05:23:56;22.38;;;15.30;;
32347;SDS011;18821;44.800;10.326;2022-09-02T05:26:23;22.77;;;15.13;;
32347;SDS011;18821;44.800;10.326;2022-09-02T05:28:51;23.08;;;14.63;;
32347;SDS011;18821;44.800;10.326;2022-09-02T05:31:18;21.38;;;14.38;;
32347;SDS011;18821;44.800;10.326;2022-09-02T05:33:47;21.33;;;13.05;;
32347;SDS011;18821;44.800;10.326;2022-09-02T05:36:18;18.33;;;11.93;;
32347;SDS011;18821;44.800;10.326;2022-09-02T05:38:49;20.08;;;12.45;;
32347;SDS011;18821;44.800;10.326;2022-09-02T05:41:17;15.80;;;11.48;;
32347;SDS011;18821;44.800;10.326;2022-09-02T05:43:50;19.05;;;13.60;;
32347;SDS011;18821;44.800;10.326;2022-09-02T05:46:20;17.90;;;12.70;;
32347;SDS011;18821;44.800;10.326;2022-09-02T05:48:48;22.38;;;13.35;;
32347;SDS011;18821;44.800;10.326;2022-09-02T05:51:41;15.20;;;11.10;;
32347;SDS011;18821;44.800;10.326;2022-09-02T05:54:11;14.80;;;11.13;;
32347;SDS011;18821;44.800;10.326;2022-09-02T05:56:40;16.35;;;10.50;;
32347;SDS011;18821;44.800;10.326;2022-09-02T05:59:08;22.05;;;10.88;;
32347;SDS011;18821;44.800;10.326;2022-09-02T06:01:35;14.57;;;9.77;;
32347;SDS011;18821;44.800;10.326;2022-09-02T06:04:02;14.55;;;8.82;;
32347;SDS011;18821;44.800;10.326;2022-09-02T06:06:30;12.85;;;8.55;;
32347;SDS011;18821;44.800;10.326;2022-09-02T06:08:57;17.13;;;8.63;;
32347;SDS011;18821;44.800;10.326;2022-09-02T06:11:23;21.63;;;9.30;;
32347;SDS011;18821;44.800;10.326;2022-09-02T06:13:50;13.85;;;7.70;;
32347;SDS011;18821;44.800;10.326;2022-09-02T06:16:20;14.35;;;8.40;;
32347;SDS011;18821;44.800;10.326;2022-09-02T06:18:48;14.68;;;7.70;;
32347;SDS011;18821;44.800;10.326;2022-09-02T06:21:15;18.10;;;7.90;;
32347;SDS011;18821;44.800;10.326;2022-09-02T06:23:46;20.88;;;8.40;;
32347;SDS011;18821;44.800;10.326;2022-09-02T06:26:13;13.70;;;8.93;;
32347;SDS011;18821;44.800;10.326;2022-09-02T06:28:40;13.95;;;8.55;;
32347;SDS011;18821;44.800;10.326;2022-09-02T06:31:11;15.40;;;8.10;;
32347;SDS011;18821;44.800;10.326;2022-09-02T06:33:43;13.98;;;8.73;;
32347;SDS011;18821;44.800;10.326;2022-09-02T06:36:13;19.27;;;10.00;;
32347;SDS011;18821;44.800;10.326;2022-09-02T06:38:42;16.17;;;9.48;;
32347;SDS011;18821;44.800;10.326;2022-09-02T06:41:12;17.75;;;9.30;;
32347;SDS011;18821;44.800;10.326;2022-09-02T06:43:41;16.05;;;10.18;;
32347;SDS011;18821;44.800;10.326;2022-09-02T06:46:15;20.80;;;8.77;;
32347;SDS011;18821;44.800;10.326;2022-09-02T06:48:49;16.48;;;8.52;;
32347;SDS011;18821;44.800;10.326;2022-09-02T06:51:19;12.93;;;8.88;;
32347;SDS011;18821;44.800;10.326;2022-09-02T06:53:53;12.77;;;8.43;;
32347;SDS011;18821;44.800;10.326;2022-09-02T06:56:22;14.27;;;8.98;;
32347;SDS011;18821;44.800;10.326;2022-09-02T06:58:49;20.30;;;10.20;;
32347;SDS011;18821;44.800;10.326;2022-09-02T07:01:19;11.98;;;8.38;;
32347;SDS011;18821;44.800;10.326;2022-09-02T07:03:55;18.98;;;8.18;;
32347;SDS011;18821;44.800;10.326;2022-09-02T07:06:42;14.13;;;8.60;;
32347;SDS011;18821;44.800;10.326;2022-09-02T07:09:13;16.98;;;9.43;;
32347;SDS011;18821;44.800;10.326;2022-09-02T07:11:42;19.33;;;9.98;;
32347;SDS011;18821;44.800;10.326;2022-09-02T07:14:13;12.93;;;8.13;;
32347;SDS011;18821;44.800;10.326;2022-09-02T07:16:45;12.20;;;7.88;;
32347;SDS011;18821;44.800;10.326;2022-09-02T07:19:14;16.20;;;8.33;;
32347;SDS011;18821;44.800;10.326;2022-09-02T07:21:41;13.45;;;8.25;;
32347;SDS011;18821;44.800;10.326;2022-09-02T07:24:08;9.77;;;6.93;;
32347;SDS011;18821;44.800;10.326;2022-09-02T07:26:36;12.45;;;6.20;;
32347;SDS011;18821;44.800;10.326;2022-09-02T07:29:03;11.35;;;6.50;;
32347;SDS011;18821;44.800;10.326;2022-09-02T07:31:34;9.40;;;5.55;;
32347;SDS011;18821;44.800;10.326;2022-09-02T07:34:02;12.13;;;6.82;;
32347;SDS011;18821;44.800;10.326;2022-09-02T07:36:30;8.15;;;5.93;;
32347;SDS011;18821;44.800;10.326;2022-09-02T07:38:57;14.27;;;6.18;;
32347;SDS011;18821;44.800;10.326;2022-09-02T07:41:23;11.20;;;5.90;;
32347;SDS011;18821;44.800;10.326;2022-09-02T07:43:49;12.23;;;6.60;;
32347;SDS011;18821;44.800;10.326;2022-09-02T07:46:16;8.25;;;5.50;;
32347;SDS011;18821;44.800;10.326;2022-09-02T07:48:42;9.18;;;5.40;;
32347;SDS011;18821;44.800;10.326;2022-09-02T07:51:09;8.70;;;5.28;;
32347;SDS011;18821;44.800;10.326;2022-09-02T07:53:37;12.15;;;6.05;;
32347;SDS011;18821;44.800;10.326;2022-09-02T07:56:04;8.65;;;5.90;;
32347;SDS011;18821;44.800;10.326;2022-09-02T07:58:30;17.92;;;6.18;;
32347;SDS011;18821;44.800;10.326;2022-09-02T08:00:56;9.88;;;5.93;;
32347;SDS011;18821;44.800;10.326;2022-09-02T08:03:23;11.15;;;5.93;;
32347;SDS011;18821;44.800;10.326;2022-09-02T08:05:52;12.90;;;6.18;;
32347;SDS011;18821;44.800;10.326;2022-09-02T08:08:19;6.70;;;5.38;;
32347;SDS011;18821;44.800;10.326;2022-09-02T08:10:49;17.35;;;5.80;;
32347;SDS011;18821;44.800;10.326;2022-09-02T08:13:16;5.47;;;4.38;;
32347;SDS011;18821;44.800;10.326;2022-09-02T08:15:42;7.97;;;4.07;;
32347;SDS011;18821;44.800;10.326;2022-09-02T08:18:09;6.15;;;4.35;;
32347;SDS011;18821;44.800;10.326;2022-09-02T08:20:36;7.63;;;4.35;;
32347;SDS011;18821;44.800;10.326;2022-09-02T08:23:02;6.57;;;4.90;;
32347;SDS011;18821;44.800;10.326;2022-09-02T08:25:31;6.65;;;3.60;;
32347;SDS011;18821;44.800;10.326;2022-09-02T08:27:57;8.00;;;4.32;;
32347;SDS011;18821;44.800;10.326;2022-09-02T08:30:23;5.90;;;3.85;;
32347;SDS011;18821;44.800;10.326;2022-09-02T08:32:49;8.93;;;4.63;;
32347;SDS011;18821;44.800;10.326;2022-09-02T08:35:15;5.50;;;4.20;;
32347;SDS011;18821;44.800;10.326;2022-09-02T08:37:42;6.53;;;4.40;;
32347;SDS011;18821;44.800;10.326;2022-09-02T08:40:12;9.73;;;4.45;;
32347;SDS011;18821;44.800;10.326;2022-09-02T08:42:42;5.90;;;3.97;;
32347;SDS011;18821;44.800;10.326;2022-09-02T08:50:44;5.95;;;3.47;;
32347;SDS011;18821;44.800;10.326;2022-09-02T08:55:46;15.48;;;3.15;;
32347;SDS011;18821;44.800;10.326;2022-09-02T08:58:24;6.57;;;3.53;;
32347;SDS011;18821;44.800;10.326;2022-09-02T09:00:58;5.70;;;3.83;;
32347;SDS011;18821;44.800;10.326;2022-09-02T09:09:39;6.60;;;3.15;;
32347;SDS011;18821;44.800;10.326;2022-09-02T09:15:00;5.18;;;3.30;;
32347;SDS011;18821;44.800;10.326;2022-09-02T09:17:41;3.92;;;2.40;;
32347;SDS011;18821;44.800;10.326;2022-09-02T09:20:16;7.03;;;2.92;;
32347;SDS011;18821;44.800;10.326;2022-09-02T09:22:48;5.60;;;2.33;;
32347;SDS011;18821;44.800;10.326;2022-09-02T09:25:17;6.82;;;2.30;;
32347;SDS011;18821;44.800;10.326;2022-09-02T09:27:43;4.47;;;2.40;;
32347;SDS011;18821;44.800;10.326;2022-09-02T09:30:10;2.85;;;1.90;;
32347;SDS011;18821;44.800;10.326;2022-09-02T09:32:42;6.57;;;2.03;;
32347;SDS011;18821;44.800;10.326;2022-09-02T09:35:15;2.97;;;2.30;;
32347;SDS011;18821;44.800;10.326;2022-09-02T09:37:42;3.70;;;2.35;;
32347;SDS011;18821;44.800;10.326;2022-09-02T09:42:46;7.03;;;2.88;;
32347;SDS011;18821;44.800;10.326;2022-09-02T09:51:26;3.03;;;1.90;;
32347;SDS011;18821;44.800;10.326;2022-09-02T09:53:28;3.53;;;2.10;;
32347;SDS011;18821;44.800;10.326;2022-09-02T09:58:27;3.70;;;2.53;;
32347;SDS011;18821;44.800;10.326;2022-09-02T10:03:41;4.15;;;2.30;;
32347;SDS011;18821;44.800;10.326;2022-09-02T10:08:57;6.65;;;2.53;;
32347;SDS011;18821;44.800;10.326;2022-09-02T10:11:26;7.72;;;2.35;;
32347;SDS011;18821;44.800;10.326;2022-09-02T10:13:59;3.45;;;2.00;;
32347;SDS011;18821;44.800;10.326;2022-09-02T10:27:36;5.43;;;2.47;;
32347;SDS011;18821;44.800;10.326;2022-09-02T10:30:16;3.65;;;2.50;;
32347;SDS011;18821;44.800;10.326;2022-09-02T10:32:51;3.95;;;2.10;;
32347;SDS011;18821;44.800;10.326;2022-09-02T10:40:47;3.67;;;1.80;;
32347;SDS011;18821;44.800;10.326;2022-09-02T10:43:25;7.05;;;2.70;;
32347;SDS011;18821;44.800;10.326;2022-09-02T10:46:16;4.68;;;2.72;;
32347;SDS011;18821;44.800;10.326;2022-09-02T10:52:18;4.25;;;2.45;;
32347;SDS011;18821;44.800;10.326;2022-09-02T10:58:23;3.60;;;2.08;;
32347;SDS011;18821;44.800;10.326;2022-09-02T11:00:24;3.28;;;1.95;;
32347;SDS011;18821;44.800;10.326;2022-09-02T11:05:38;4.05;;;2.22;;
32347;SDS011;18821;44.800;10.326;2022-09-02T11:08:37;3.13;;;1.73;;
32347;SDS011;18821;44.800;10.326;2022-09-02T11:11:09;2.67;;;1.85;;
32347;SDS011;18821;44.800;10.326;2022-09-02T11:32:14;4.18;;;2.22;;
32347;SDS011;18821;44.800;10.326;2022-09-02T11:35:02;8.60;;;2.60;;
32347;SDS011;18821;44.800;10.326;2022-09-02T11:37:37;5.43;;;2.10;;
32347;SDS011;18821;44.800;10.326;2022-09-02T11:40:24;2.88;;;2.08;;
32347;SDS011;18821;44.800;10.326;2022-09-02T11:55:14;3.13;;;2.00;;
32347;SDS011;18821;44.800;10.326;2022-09-02T11:57:55;2.97;;;1.90;;
32347;SDS011;18821;44.800;10.326;2022-09-02T12:19:39;2.60;;;1.63;;
32347;SDS011;18821;44.800;10.326;2022-09-02T12:21:35;2.83;;;1.63;;
32347;SDS011;18821;44.800;10.326;2022-09-02T12:24:32;4.15;;;1.60;;
32347;SDS011;18821;44.800;10.326;2022-09-02T12:27:24;4.03;;;1.77;;
32347;SDS011;18821;44.800;10.326;2022-09-02T12:29:52;3.40;;;2.00;;
32347;SDS011;18821;44.800;10.326;2022-09-02T12:35:12;1.75;;;1.38;;
32347;SDS011;18821;44.800;10.326;2022-09-02T12:40:40;6.43;;;1.90;;
32347;SDS011;18821;44.800;10.326;2022-09-02T12:52:02;5.55;;;1.98;;
32347;SDS011;18821;44.800;10.326;2022-09-02T12:57:12;3.53;;;2.05;;
32347;SDS011;18821;44.800;10.326;2022-09-02T12:59:40;2.88;;;1.88;;
32347;SDS011;18821;44.800;10.326;2022-09-02T13:04:56;3.55;;;1.55;;
32347;SDS011;18821;44.800;10.326;2022-09-02T13:08:01;5.32;;;1.88;;
32347;SDS011;18821;44.800;10.326;2022-09-02T13:32:44;3.92;;;1.95;;
32347;SDS011;18821;44.800;10.326;2022-09-02T13:35:26;5.38;;;2.10;;
32347;SDS011;18821;44.800;10.326;2022-09-02T13:37:53;3.80;;;1.50;;
32347;SDS011;18821;44.800;10.326;2022-09-02T13:40:25;3.10;;;1.60;;
32347;SDS011;18821;44.800;10.326;2022-09-02T13:42:54;2.55;;;2.05;;
32347;SDS011;18821;44.800;10.326;2022-09-02T13:45:26;3.25;;;1.90;;
32347;SDS011;18821;44.800;10.326;2022-09-02T13:47:57;3.30;;;1.85;;
32347;SDS011;18821;44.800;10.326;2022-09-02T13:50:27;4.05;;;2.05;;
32347;SDS011;18821;44.800;10.326;2022-09-02T13:52:56;7.50;;;2.13;;
32347;SDS011;18821;44.800;10.326;2022-09-02T13:55:31;8.02;;;3.60;;
32347;SDS011;18821;44.800;10.326;2022-09-02T14:00:35;3.58;;;2.22;;
32347;SDS011;18821;44.800;10.326;2022-09-02T14:03:09;6.07;;;2.05;;
32347;SDS011;18821;44.800;10.326;2022-09-02T14:05:40;2.42;;;1.63;;
32347;SDS011;18821;44.800;10.326;2022-09-02T14:08:17;2.15;;;1.67;;
32347;SDS011;18821;44.800;10.326;2022-09-02T14:10:51;7.57;;;2.28;;
32347;SDS011;18821;44.800;10.326;2022-09-02T14:13:18;4.28;;;1.80;;
32347;SDS011;18821;44.800;10.326;2022-09-02T14:15:46;3.45;;;2.25;;
32347;SDS011;18821;44.800;10.326;2022-09-02T14:18:16;5.35;;;2.90;;
32347;SDS011;18821;44.800;10.326;2022-09-02T14:23:25;5.50;;;1.55;;
32347;SDS011;18821;44.800;10.326;2022-09-02T14:25:53;2.88;;;1.60;;
32347;SDS011;18821;44.800;10.326;2022-09-02T14:28:23;3.15;;;2.08;;
32347;SDS011;18821;44.800;10.326;2022-09-02T14:30:59;6.15;;;1.95;;
32347;SDS011;18821;44.800;10.326;2022-09-02T14:46:20;4.15;;;2.33;;
32347;SDS011;18821;44.800;10.326;2022-09-02T14:48:53;3.33;;;1.83;;
32347;SDS011;18821;44.800;10.326;2022-09-02T14:51:29;4.47;;;1.77;;
32347;SDS011;18821;44.800;10.326;2022-09-02T14:54:10;2.60;;;2.00;;
32347;SDS011;18821;44.800;10.326;2022-09-02T14:56:45;6.63;;;2.33;;
32347;SDS011;18821;44.800;10.326;2022-09-02T14:59:18;3.70;;;1.90;;
32347;SDS011;18821;44.800;10.326;2022-09-02T15:01:46;10.50;;;2.17;;
32347;SDS011;18821;44.800;10.326;2022-09-02T15:04:16;4.57;;;1.98;;
32347;SDS011;18821;44.800;10.326;2022-09-02T15:06:46;1.77;;;1.42;;
32347;SDS011;18821;44.800;10.326;2022-09-02T15:09:13;2.75;;;1.73;;
32347;SDS011;18821;44.800;10.326;2022-09-02T15:11:42;4.95;;;1.90;;
32347;SDS011;18821;44.800;10.326;2022-09-02T15:14:12;4.88;;;1.90;;
32347;SDS011;18821;44.800;10.326;2022-09-02T15:16:39;4.72;;;1.90;;
32347;SDS011;18821;44.800;10.326;2022-09-02T15:19:06;2.97;;;1.88;;
32347;SDS011;18821;44.800;10.326;2022-09-02T15:21:33;5.57;;;2.58;;
32347;SDS011;18821;44.800;10.326;2022-09-02T15:23:59;4.13;;;2.08;;
32347;SDS011;18821;44.800;10.326;2022-09-02T15:26:25;3.55;;;2.13;;
32347;SDS011;18821;44.800;10.326;2022-09-02T15:28:53;5.13;;;1.80;;
32347;SDS011;18821;44.800;10.326;2022-09-02T15:31:19;3.92;;;1.90;;
32347;SDS011;18821;44.800;10.326;2022-09-02T15:33:50;4.03;;;2.13;;
32347;SDS011;18821;44.800;10.326;2022-09-02T15:36:16;4.90;;;2.25;;
32347;SDS011;18821;44.800;10.326;2022-09-02T15:38:43;3.40;;;1.95;;
32347;SDS011;18821;44.800;10.326;2022-09-02T15:41:16;4.35;;;1.90;;
32347;SDS011;18821;44.800;10.326;2022-09-02T15:43:44;2.72;;;1.73;;
32347;SDS011;18821;44.800;10.326;2022-09-02T15:46:22;2.38;;;1.80;;
32347;SDS011;18821;44.800;10.326;2022-09-02T15:48:59;4.15;;;2.13;;
32347;SDS011;18821;44.800;10.326;2022-09-02T15:51:26;2.28;;;1.95;;
32347;SDS011;18821;44.800;10.326;2022-09-02T15:53:53;3.28;;;2.20;;
32347;SDS011;18821;44.800;10.326;2022-09-02T15:56:24;6.10;;;1.92;;
32347;SDS011;18821;44.800;10.326;2022-09-02T16:01:23;3.95;;;2.28;;
32347;SDS011;18821;44.800;10.326;2022-09-02T16:03:50;2.75;;;2.10;;
32347;SDS011;18821;44.800;10.326;2022-09-02T16:06:16;3.95;;;1.90;;
32347;SDS011;18821;44.800;10.326;2022-09-02T16:08:42;5.40;;;2.33;;
32347;SDS011;18821;44.800;10.326;2022-09-02T16:11:08;3.83;;;2.05;;
32347;SDS011;18821;44.800;10.326;2022-09-02T16:13:37;4.50;;;2.15;;
32347;SDS011;18821;44.800;10.326;2022-09-02T16:16:04;3.83;;;2.30;;
32347;SDS011;18821;44.800;10.326;2022-09-02T16:18:32;5.55;;;2.65;;
32347;SDS011;18821;44.800;10.326;2022-09-02T16:21:00;5.25;;;2.28;;
32347;SDS011;18821;44.800;10.326;2022-09-02T16:23:26;3.03;;;2.03;;
32347;SDS011;18821;44.800;10.326;2022-09-02T16:28:52;5.57;;;2.28;;
32347;SDS011;18821;44.800;10.326;2022-09-02T16:31:20;4.45;;;2.40;;
32347;SDS011;18821;44.800;10.326;2022-09-02T16:36:18;8.77;;;2.50;;
32347;SDS011;18821;44.800;10.326;2022-09-02T16:38:45;5.63;;;2.20;;
32347;SDS011;18821;44.800;10.326;2022-09-02T16:41:23;4.00;;;2.45;;
32347;SDS011;18821;44.800;10.326;2022-09-02T16:43:57;4.65;;;1.90;;
32347;SDS011;18821;44.800;10.326;2022-09-02T16:46:25;3.92;;;2.08;;
32347;SDS011;18821;44.800;10.326;2022-09-02T16:48:52;3.75;;;2.03;;
32347;SDS011;18821;44.800;10.326;2022-09-02T16:51:21;4.22;;;1.98;;
32347;SDS011;18821;44.800;10.326;2022-09-02T16:53:58;5.82;;;2.47;;
32347;SDS011;18821;44.800;10.326;2022-09-02T16:56:26;8.35;;;2.08;;
32347;SDS011;18821;44.800;10.326;2022-09-02T16:58:55;4.85;;;2.58;;
32347;SDS011;18821;44.800;10.326;2022-09-02T17:01:26;3.03;;;2.13;;
32347;SDS011;18821;44.800;10.326;2022-09-02T17:03:52;7.93;;;2.78;;
32347;SDS011;18821;44.800;10.326;2022-09-02T17:06:18;5.80;;;2.10;;
32347;SDS011;18821;44.800;10.326;2022-09-02T17:08:44;4.15;;;2.30;;
32347;SDS011;18821;44.800;10.326;2022-09-02T17:11:12;5.90;;;2.60;;
32347;SDS011;18821;44.800;10.326;2022-09-02T17:14:01;6.63;;;2.67;;
32347;SDS011;18821;44.800;10.326;2022-09-02T17:16:33;2.97;;;2.47;;
32347;SDS011;18821;44.800;10.326;2022-09-02T17:19:02;6.18;;;2.70;;
32347;SDS011;18821;44.800;10.326;2022-09-02T17:21:29;6.78;;;2.60;;
32347;SDS011;18821;44.800;10.326;2022-09-02T17:23:56;4.60;;;2.40;;
32347;SDS011;18821;44.800;10.326;2022-09-02T17:26:23;6.78;;;2.83;;
32347;SDS011;18821;44.800;10.326;2022-09-02T17:28:51;7.43;;;2.65;;
32347;SDS011;18821;44.800;10.326;2022-09-02T17:33:56;7.78;;;2.88;;
32347;SDS011;18821;44.800;10.326;2022-09-02T17:36:23;7.53;;;2.47;;
32347;SDS011;18821;44.800;10.326;2022-09-02T17:38:54;5.10;;;2.50;;
32347;SDS011;18821;44.800;10.326;2022-09-02T17:41:23;5.35;;;2.60;;